Terminal Aerodrome Forecast
Issued by NWS Cleveland, OH

Current Version | Previous Version | Text Only | Print | Product List | Glossary On
Versions: 1 2 3 4 5 6 7 8 9 10 11 12 13 14 15 16 17 18 19 20 21 22 23 24 25
000
FTUS41 KCLE 251738
TAFTOL
TAF
KTOL 251738Z 2518/2618 26020G30KT 6SM -SHSN SCT015 OVC025
      TEMPO 2518/2522 5SM -SHSN OVC015
     FM260000 27014G22KT P6SM OVC025
     FM261400 24008KT P6SM SCT025 OVC100=

USA.gov is the U.S. government's official web portal to all federal, state and local government web resources and services.